sensor_id;sensor_type;location;lat;lon;timestamp;pressure;altitude;pressure_sealevel;temperature;humidity
21203;BME280;10759;51.982;9.232;2023-02-10T00:01:02;102178.38;;;2.16;100.00
21203;BME280;10759;51.982;9.232;2023-02-10T00:03:30;102173.78;;;2.07;100.00
21203;BME280;10759;51.982;9.232;2023-02-10T00:05:59;102180.13;;;2.15;100.00
21203;BME280;10759;51.982;9.232;2023-02-10T00:08:28;102173.09;;;2.16;100.00
21203;BME280;10759;51.982;9.232;2023-02-10T00:10:58;102161.56;;;2.12;100.00
21203;BME280;10759;51.982;9.232;2023-02-10T00:13:26;102188.25;;;2.22;100.00
21203;BME280;10759;51.982;9.232;2023-02-10T00:15:57;102176.69;;;2.18;100.00
21203;BME280;10759;51.982;9.232;2023-02-10T00:18:25;102180.19;;;2.17;100.00
21203;BME280;10759;51.982;9.232;2023-02-10T00:20:54;102184.88;;;2.29;100.00
21203;BME280;10759;51.982;9.232;2023-02-10T00:23:22;102187.44;;;2.24;100.00
21203;BME280;10759;51.982;9.232;2023-02-10T00:25:50;102186.50;;;2.24;100.00
21203;BME280;10759;51.982;9.232;2023-02-10T00:28:19;102194.66;;;2.31;100.00
21203;BME280;10759;51.982;9.232;2023-02-10T00:30:47;102188.16;;;2.19;100.00
21203;BME280;10759;51.982;9.232;2023-02-10T00:33:15;102179.00;;;2.06;100.00
21203;BME280;10759;51.982;9.232;2023-02-10T00:35:44;102187.81;;;2.05;100.00
21203;BME280;10759;51.982;9.232;2023-02-10T00:38:13;102188.03;;;2.14;100.00
21203;BME280;10759;51.982;9.232;2023-02-10T00:40:41;102194.44;;;2.22;100.00
21203;BME280;10759;51.982;9.232;2023-02-10T00:43:09;102171.97;;;2.06;100.00
21203;BME280;10759;51.982;9.232;2023-02-10T00:45:38;102198.84;;;2.22;100.00
21203;BME280;10759;51.982;9.232;2023-02-10T00:48:06;102189.94;;;2.20;100.00
21203;BME280;10759;51.982;9.232;2023-02-10T00:50:34;102201.25;;;2.14;100.00
21203;BME280;10759;51.982;9.232;2023-02-10T00:53:02;102097.41;;;1.52;100.00
21203;BME280;10759;51.982;9.232;2023-02-10T00:55:30;102195.75;;;2.05;100.00
21203;BME280;10759;51.982;9.232;2023-02-10T00:57:57;102201.75;;;1.99;100.00
21203;BME280;10759;51.982;9.232;2023-02-10T01:00:25;102201.13;;;2.08;100.00
21203;BME280;10759;51.982;9.232;2023-02-10T01:02:55;102078.13;;;1.22;100.00
21203;BME280;10759;51.982;9.232;2023-02-10T01:05:23;102202.66;;;2.00;100.00
21203;BME280;10759;51.982;9.232;2023-02-10T01:07:51;102157.84;;;1.71;100.00
21203;BME280;10759;51.982;9.232;2023-02-10T01:10:19;102207.03;;;1.99;100.00
21203;BME280;10759;51.982;9.232;2023-02-10T01:12:47;102193.63;;;1.91;100.00
21203;BME280;10759;51.982;9.232;2023-02-10T01:15:15;102216.03;;;2.06;100.00
21203;BME280;10759;51.982;9.232;2023-02-10T01:17:43;102153.28;;;1.65;100.00
21203;BME280;10759;51.982;9.232;2023-02-10T01:20:12;102223.28;;;2.13;100.00
21203;BME280;10759;51.982;9.232;2023-02-10T01:22:40;102223.34;;;2.16;100.00
21203;BME280;10759;51.982;9.232;2023-02-10T01:25:08;102224.34;;;2.20;100.00
21203;BME280;10759;51.982;9.232;2023-02-10T01:27:36;102172.13;;;2.12;100.00
21203;BME280;10759;51.982;9.232;2023-02-10T01:30:07;102221.31;;;2.41;100.00
21203;BME280;10759;51.982;9.232;2023-02-10T01:32:35;102224.69;;;2.33;100.00
21203;BME280;10759;51.982;9.232;2023-02-10T01:35:03;102224.97;;;2.46;100.00
21203;BME280;10759;51.982;9.232;2023-02-10T01:37:32;102222.94;;;2.34;100.00
21203;BME280;10759;51.982;9.232;2023-02-10T01:40:03;102228.03;;;2.26;100.00
21203;BME280;10759;51.982;9.232;2023-02-10T01:42:31;102228.84;;;2.24;100.00
21203;BME280;10759;51.982;9.232;2023-02-10T01:45:16;102229.91;;;2.30;100.00
21203;BME280;10759;51.982;9.232;2023-02-10T01:47:45;102227.00;;;2.21;100.00
21203;BME280;10759;51.982;9.232;2023-02-10T01:50:16;102226.63;;;2.41;100.00
21203;BME280;10759;51.982;9.232;2023-02-10T01:52:46;102196.56;;;2.39;100.00
21203;BME280;10759;51.982;9.232;2023-02-10T01:55:18;102031.03;;;1.39;100.00
21203;BME280;10759;51.982;9.232;2023-02-10T01:57:48;102232.38;;;2.59;100.00
21203;BME280;10759;51.982;9.232;2023-02-10T02:00:22;102236.69;;;2.55;100.00
21203;BME280;10759;51.982;9.232;2023-02-10T02:02:51;102218.28;;;2.60;100.00
21203;BME280;10759;51.982;9.232;2023-02-10T02:05:22;102166.41;;;2.30;100.00
21203;BME280;10759;51.982;9.232;2023-02-10T02:07:57;102096.78;;;1.95;100.00
21203;BME280;10759;51.982;9.232;2023-02-10T02:10:35;102220.75;;;2.52;100.00
21203;BME280;10759;51.982;9.232;2023-02-10T02:13:08;102197.69;;;2.47;100.00
21203;BME280;10759;51.982;9.232;2023-02-10T02:15:42;102216.31;;;2.51;100.00
21203;BME280;10759;51.982;9.232;2023-02-10T02:18:21;102228.44;;;2.42;100.00
21203;BME280;10759;51.982;9.232;2023-02-10T02:24:21;102236.09;;;2.67;100.00
21203;BME280;10759;51.982;9.232;2023-02-10T02:26:58;102180.69;;;2.37;100.00
21203;BME280;10759;51.982;9.232;2023-02-10T02:29:49;102215.63;;;2.58;100.00
21203;BME280;10759;51.982;9.232;2023-02-10T02:32:29;102234.16;;;2.60;100.00
21203;BME280;10759;51.982;9.232;2023-02-10T02:35:02;102233.34;;;2.63;100.00
21203;BME280;10759;51.982;9.232;2023-02-10T02:37:34;102233.09;;;2.53;100.00
21203;BME280;10759;51.982;9.232;2023-02-10T02:40:04;102239.38;;;2.57;100.00
21203;BME280;10759;51.982;9.232;2023-02-10T02:42:34;102226.63;;;2.41;100.00
21203;BME280;10759;51.982;9.232;2023-02-10T02:45:04;102167.19;;;1.91;100.00
21203;BME280;10759;51.982;9.232;2023-02-10T02:50:39;102228.75;;;2.19;100.00
21203;BME280;10759;51.982;9.232;2023-02-10T02:53:20;102233.81;;;2.11;100.00
21203;BME280;10759;51.982;9.232;2023-02-10T02:56:00;102229.06;;;1.98;100.00
21203;BME280;10759;51.982;9.232;2023-02-10T02:58:41;102228.09;;;1.95;100.00
21203;BME280;10759;51.982;9.232;2023-02-10T03:01:14;102226.22;;;1.90;100.00
21203;BME280;10759;51.982;9.232;2023-02-10T03:03:43;102229.59;;;1.85;100.00
21203;BME280;10759;51.982;9.232;2023-02-10T03:06:13;102197.00;;;1.86;100.00
21203;BME280;10759;51.982;9.232;2023-02-10T03:08:41;102225.47;;;1.95;100.00
21203;BME280;10759;51.982;9.232;2023-02-10T03:11:09;102225.28;;;1.88;100.00
21203;BME280;10759;51.982;9.232;2023-02-10T03:13:37;102219.91;;;1.85;100.00
21203;BME280;10759;51.982;9.232;2023-02-10T03:16:05;102210.06;;;1.80;100.00
21203;BME280;10759;51.982;9.232;2023-02-10T03:18:33;102207.94;;;1.66;100.00
21203;BME280;10759;51.982;9.232;2023-02-10T03:21:01;102191.81;;;1.57;100.00
21203;BME280;10759;51.982;9.232;2023-02-10T03:23:30;102215.38;;;1.81;100.00
21203;BME280;10759;51.982;9.232;2023-02-10T03:25:58;102219.66;;;1.76;100.00
21203;BME280;10759;51.982;9.232;2023-02-10T03:28:27;102211.78;;;1.78;100.00
21203;BME280;10759;51.982;9.232;2023-02-10T03:30:55;102213.50;;;1.77;100.00
21203;BME280;10759;51.982;9.232;2023-02-10T03:33:23;102091.00;;;1.10;100.00
21203;BME280;10759;51.982;9.232;2023-02-10T03:35:51;102114.22;;;1.22;100.00
21203;BME280;10759;51.982;9.232;2023-02-10T03:38:20;102223.41;;;1.84;100.00
21203;BME280;10759;51.982;9.232;2023-02-10T03:40:50;102226.84;;;1.80;100.00
21203;BME280;10759;51.982;9.232;2023-02-10T03:43:19;102220.03;;;1.90;100.00
21203;BME280;10759;51.982;9.232;2023-02-10T03:45:48;102225.34;;;1.90;100.00
21203;BME280;10759;51.982;9.232;2023-02-10T03:48:16;102214.88;;;1.95;100.00
21203;BME280;10759;51.982;9.232;2023-02-10T03:50:44;102197.53;;;1.73;100.00
21203;BME280;10759;51.982;9.232;2023-02-10T03:53:12;102222.72;;;1.91;100.00
21203;BME280;10759;51.982;9.232;2023-02-10T03:55:40;102215.78;;;1.97;100.00
21203;BME280;10759;51.982;9.232;2023-02-10T03:58:09;102220.16;;;1.95;100.00
21203;BME280;10759;51.982;9.232;2023-02-10T04:00:37;102221.81;;;1.91;100.00
21203;BME280;10759;51.982;9.232;2023-02-10T04:03:05;102191.59;;;1.81;100.00
21203;BME280;10759;51.982;9.232;2023-02-10T04:05:33;102201.88;;;2.04;100.00
21203;BME280;10759;51.982;9.232;2023-02-10T04:08:01;102232.91;;;2.11;100.00
21203;BME280;10759;51.982;9.232;2023-02-10T04:10:29;102230.84;;;1.99;100.00
21203;BME280;10759;51.982;9.232;2023-02-10T04:12:57;102228.66;;;2.16;100.00
21203;BME280;10759;51.982;9.232;2023-02-10T04:15:26;102230.34;;;2.12;100.00
21203;BME280;10759;51.982;9.232;2023-02-10T04:17:54;102224.88;;;2.06;100.00
21203;BME280;10759;51.982;9.232;2023-02-10T04:20:23;102224.84;;;2.05;100.00
21203;BME280;10759;51.982;9.232;2023-02-10T04:22:51;102218.75;;;2.07;100.00
21203;BME280;10759;51.982;9.232;2023-02-10T04:25:19;102224.84;;;2.05;100.00
21203;BME280;10759;51.982;9.232;2023-02-10T04:27:48;102165.16;;;1.81;100.00
21203;BME280;10759;51.982;9.232;2023-02-10T04:30:16;102231.28;;;2.16;100.00
21203;BME280;10759;51.982;9.232;2023-02-10T04:32:45;102230.41;;;2.15;100.00
21203;BME280;10759;51.982;9.232;2023-02-10T04:35:13;102232.91;;;2.11;100.00
21203;BME280;10759;51.982;9.232;2023-02-10T04:37:41;102231.84;;;2.04;100.00
21203;BME280;10759;51.982;9.232;2023-02-10T04:40:10;102239.25;;;1.84;100.00
21203;BME280;10759;51.982;9.232;2023-02-10T04:42:37;102207.63;;;1.87;100.00
21203;BME280;10759;51.982;9.232;2023-02-10T04:45:06;102224.66;;;1.97;100.00
21203;BME280;10759;51.982;9.232;2023-02-10T04:47:34;102230.09;;;2.03;100.00
21203;BME280;10759;51.982;9.232;2023-02-10T04:50:04;102239.56;;;1.95;100.00
21203;BME280;10759;51.982;9.232;2023-02-10T04:52:32;102219.03;;;1.86;100.00
21203;BME280;10759;51.982;9.232;2023-02-10T04:55:00;102230.91;;;2.01;100.00
21203;BME280;10759;51.982;9.232;2023-02-10T04:57:28;102237.25;;;2.07;100.00
21203;BME280;10759;51.982;9.232;2023-02-10T04:59:56;102232.84;;;2.08;100.00
21203;BME280;10759;51.982;9.232;2023-02-10T05:02:24;102203.25;;;1.88;100.00
21203;BME280;10759;51.982;9.232;2023-02-10T05:04:52;102135.09;;;1.44;100.00
21203;BME280;10759;51.982;9.232;2023-02-10T05:07:21;102228.00;;;1.91;100.00
21203;BME280;10759;51.982;9.232;2023-02-10T05:09:49;102168.84;;;1.55;100.00
21203;BME280;10759;51.982;9.232;2023-02-10T05:12:17;102227.91;;;1.88;100.00
21203;BME280;10759;51.982;9.232;2023-02-10T05:14:45;102227.72;;;1.81;100.00
21203;BME280;10759;51.982;9.232;2023-02-10T05:17:13;102230.38;;;1.81;100.00
21203;BME280;10759;51.982;9.232;2023-02-10T05:19:41;102233.91;;;1.81;100.00
21203;BME280;10759;51.982;9.232;2023-02-10T05:22:08;102241.16;;;1.88;100.00
21203;BME280;10759;51.982;9.232;2023-02-10T05:24:38;102241.06;;;1.85;100.00
21203;BME280;10759;51.982;9.232;2023-02-10T05:27:06;102241.16;;;1.88;100.00
21203;BME280;10759;51.982;9.232;2023-02-10T05:29:34;102245.53;;;1.88;100.00
21203;BME280;10759;51.982;9.232;2023-02-10T05:32:02;102246.16;;;1.78;100.00
21203;BME280;10759;51.982;9.232;2023-02-10T05:34:30;102258.56;;;1.80;100.00
21203;BME280;10759;51.982;9.232;2023-02-10T05:36:57;102255.72;;;1.74;100.00
21203;BME280;10759;51.982;9.232;2023-02-10T05:39:25;102256.75;;;1.79;100.00
21203;BME280;10759;51.982;9.232;2023-02-10T05:41:56;102266.44;;;1.79;100.00
21203;BME280;10759;51.982;9.232;2023-02-10T05:44:26;102254.97;;;1.78;100.00
21203;BME280;10759;51.982;9.232;2023-02-10T05:46:54;102280.75;;;1.87;100.00
21203;BME280;10759;51.982;9.232;2023-02-10T05:49:22;102279.09;;;1.90;100.00
21203;BME280;10759;51.982;9.232;2023-02-10T05:51:50;102284.44;;;1.92;100.00
21203;BME280;10759;51.982;9.232;2023-02-10T05:54:18;102279.25;;;1.95;100.00
21203;BME280;10759;51.982;9.232;2023-02-10T05:56:46;102281.91;;;1.97;100.00
21203;BME280;10759;51.982;9.232;2023-02-10T05:59:17;102278.09;;;1.85;100.00
21203;BME280;10759;51.982;9.232;2023-02-10T06:01:45;102285.75;;;1.76;100.00
21203;BME280;10759;51.982;9.232;2023-02-10T06:04:13;102286.16;;;1.90;100.00
21203;BME280;10759;51.982;9.232;2023-02-10T06:06:41;102253.88;;;1.70;100.00
21203;BME280;10759;51.982;9.232;2023-02-10T06:09:09;102297.75;;;1.95;100.00
21203;BME280;10759;51.982;9.232;2023-02-10T06:11:37;102282.56;;;1.88;100.00
21203;BME280;10759;51.982;9.232;2023-02-10T06:14:05;102173.34;;;1.27;100.00
21203;BME280;10759;51.982;9.232;2023-02-10T06:16:34;102300.22;;;1.89;100.00
21203;BME280;10759;51.982;9.232;2023-02-10T06:19:02;102307.34;;;1.91;100.00
21203;BME280;10759;51.982;9.232;2023-02-10T06:21:31;102293.34;;;1.96;100.00
21203;BME280;10759;51.982;9.232;2023-02-10T06:23:59;102301.22;;;2.26;100.00
21203;BME280;10759;51.982;9.232;2023-02-10T06:26:27;102317.22;;;2.65;100.00
21203;BME280;10759;51.982;9.232;2023-02-10T06:28:55;102289.44;;;2.48;100.00
21203;BME280;10759;51.982;9.232;2023-02-10T06:31:23;102313.19;;;2.79;100.00
21203;BME280;10759;51.982;9.232;2023-02-10T06:33:53;102326.50;;;2.83;100.00
21203;BME280;10759;51.982;9.232;2023-02-10T06:36:21;102314.78;;;2.73;100.00
21203;BME280;10759;51.982;9.232;2023-02-10T06:38:49;102312.88;;;2.67;100.00
21203;BME280;10759;51.982;9.232;2023-02-10T06:41:17;102320.88;;;2.70;100.00
21203;BME280;10759;51.982;9.232;2023-02-10T06:43:45;102287.78;;;2.51;100.00
21203;BME280;10759;51.982;9.232;2023-02-10T06:46:14;102317.59;;;2.80;100.00
21203;BME280;10759;51.982;9.232;2023-02-10T06:48:42;102325.69;;;2.85;100.00
21203;BME280;10759;51.982;9.232;2023-02-10T06:51:11;102301.81;;;2.84;100.00
21203;BME280;10759;51.982;9.232;2023-02-10T06:53:39;102313.97;;;2.75;100.00
21203;BME280;10759;51.982;9.232;2023-02-10T06:56:09;102340.75;;;2.88;100.00
21203;BME280;10759;51.982;9.232;2023-02-10T06:58:37;102336.31;;;2.87;100.00
21203;BME280;10759;51.982;9.232;2023-02-10T07:01:09;102202.19;;;2.16;100.00
21203;BME280;10759;51.982;9.232;2023-02-10T07:03:37;102330.16;;;2.88;100.00
21203;BME280;10759;51.982;9.232;2023-02-10T07:06:05;102323.59;;;2.72;100.00
21203;BME280;10759;51.982;9.232;2023-02-10T07:08:34;102337.38;;;2.95;100.00
21203;BME280;10759;51.982;9.232;2023-02-10T07:11:03;102345.53;;;3.03;100.00
21203;BME280;10759;51.982;9.232;2023-02-10T07:13:30;102347.41;;;3.07;100.00
21203;BME280;10759;51.982;9.232;2023-02-10T07:15:58;102342.75;;;2.96;100.00
21203;BME280;10759;51.982;9.232;2023-02-10T07:18:26;102341.03;;;2.98;100.00
21203;BME280;10759;51.982;9.232;2023-02-10T07:20:56;102337.56;;;3.01;100.00
21203;BME280;10759;51.982;9.232;2023-02-10T07:23:24;102344.34;;;2.90;100.00
21203;BME280;10759;51.982;9.232;2023-02-10T07:26:04;102341.81;;;2.94;100.00
21203;BME280;10759;51.982;9.232;2023-02-10T07:28:32;102332.50;;;2.75;100.00
21203;BME280;10759;51.982;9.232;2023-02-10T07:31:00;102347.47;;;2.73;100.00
21203;BME280;10759;51.982;9.232;2023-02-10T07:33:29;102260.63;;;2.25;100.00
21203;BME280;10759;51.982;9.232;2023-02-10T07:35:59;102356.75;;;2.91;100.00
21203;BME280;10759;51.982;9.232;2023-02-10T07:38:29;102344.91;;;2.78;100.00
21203;BME280;10759;51.982;9.232;2023-02-10T07:40:57;102179.38;;;1.86;100.00
21203;BME280;10759;51.982;9.232;2023-02-10T07:43:26;102337.84;;;2.77;100.00
21203;BME280;10759;51.982;9.232;2023-02-10T07:46:02;102352.97;;;2.83;100.00
21203;BME280;10759;51.982;9.232;2023-02-10T07:48:30;102295.22;;;2.66;100.00
21203;BME280;10759;51.982;9.232;2023-02-10T07:50:57;102300.50;;;2.66;100.00
21203;BME280;10759;51.982;9.232;2023-02-10T07:53:25;102354.94;;;2.90;100.00
21203;BME280;10759;51.982;9.232;2023-02-10T07:55:53;102366.53;;;2.95;100.00
21203;BME280;10759;51.982;9.232;2023-02-10T07:58:21;102346.22;;;2.94;100.00
21203;BME280;10759;51.982;9.232;2023-02-10T08:00:50;102360.28;;;2.93;100.00
21203;BME280;10759;51.982;9.232;2023-02-10T08:03:18;102351.34;;;2.88;100.00
21203;BME280;10759;51.982;9.232;2023-02-10T08:05:47;102367.47;;;2.97;100.00
21203;BME280;10759;51.982;9.232;2023-02-10T08:08:16;102364.81;;;2.97;100.00
21203;BME280;10759;51.982;9.232;2023-02-10T08:10:43;102359.81;;;3.09;100.00
21203;BME280;10759;51.982;9.232;2023-02-10T08:13:12;102299.50;;;2.61;100.00
21203;BME280;10759;51.982;9.232;2023-02-10T08:15:39;102368.34;;;2.96;100.00
21203;BME280;10759;51.982;9.232;2023-02-10T08:18:09;102306.31;;;2.51;100.00
21203;BME280;10759;51.982;9.232;2023-02-10T08:20:37;102358.28;;;2.83;100.00
21203;BME280;10759;51.982;9.232;2023-02-10T08:23:09;102343.78;;;2.68;100.00
21203;BME280;10759;51.982;9.232;2023-02-10T08:25:40;102369.97;;;2.91;100.00
21203;BME280;10759;51.982;9.232;2023-02-10T08:28:08;102374.41;;;2.92;100.00
21203;BME280;10759;51.982;9.232;2023-02-10T08:30:36;102372.78;;;2.97;100.00
21203;BME280;10759;51.982;9.232;2023-02-10T08:33:04;102287.56;;;2.78;100.00
21203;BME280;10759;51.982;9.232;2023-02-10T08:35:34;102381.31;;;3.20;100.00
21203;BME280;10759;51.982;9.232;2023-02-10T08:38:02;102370.47;;;3.12;100.00
21203;BME280;10759;51.982;9.232;2023-02-10T08:40:31;102370.41;;;3.08;100.00
21203;BME280;10759;51.982;9.232;2023-02-10T08:43:00;102336.09;;;2.77;100.00
21203;BME280;10759;51.982;9.232;2023-02-10T08:45:29;102351.09;;;2.77;100.00
21203;BME280;10759;51.982;9.232;2023-02-10T08:47:56;102373.47;;;2.90;100.00
21203;BME280;10759;51.982;9.232;2023-02-10T08:50:24;102349.63;;;2.90;100.00
21203;BME280;10759;51.982;9.232;2023-02-10T08:52:54;102354.22;;;2.95;100.00
21203;BME280;10759;51.982;9.232;2023-02-10T08:55:22;102239.97;;;2.44;100.00
21203;BME280;10759;51.982;9.232;2023-02-10T08:57:50;102344.63;;;3.02;100.00
21203;BME280;10759;51.982;9.232;2023-02-10T09:00:18;102384.72;;;3.16;100.00
21203;BME280;10759;51.982;9.232;2023-02-10T09:02:48;102374.00;;;3.11;100.00
21203;BME280;10759;51.982;9.232;2023-02-10T09:05:17;102385.63;;;3.16;100.00
21203;BME280;10759;51.982;9.232;2023-02-10T09:07:46;102387.50;;;3.20;100.00
21203;BME280;10759;51.982;9.232;2023-02-10T09:10:16;102382.31;;;3.27;100.00
21203;BME280;10759;51.982;9.232;2023-02-10T09:12:44;102366.13;;;3.14;100.00
21203;BME280;10759;51.982;9.232;2023-02-10T09:15:12;102387.56;;;3.23;100.00
21203;BME280;10759;51.982;9.232;2023-02-10T09:17:40;102383.13;;;3.22;100.00
21203;BME280;10759;51.982;9.232;2023-02-10T09:20:09;102377.13;;;3.31;100.00
21203;BME280;10759;51.982;9.232;2023-02-10T09:22:38;102401.09;;;3.36;100.00
21203;BME280;10759;51.982;9.232;2023-02-10T09:25:06;102408.59;;;3.54;100.00
21203;BME280;10759;51.982;9.232;2023-02-10T09:27:35;102274.34;;;2.78;100.00
21203;BME280;10759;51.982;9.232;2023-02-10T09:30:03;102406.09;;;3.60;100.00
21203;BME280;10759;51.982;9.232;2023-02-10T09:32:31;102412.88;;;3.47;100.00
21203;BME280;10759;51.982;9.232;2023-02-10T09:34:59;102345.75;;;3.10;100.00
21203;BME280;10759;51.982;9.232;2023-02-10T09:37:27;102397.81;;;3.46;100.00
21203;BME280;10759;51.982;9.232;2023-02-10T09:39:55;102411.34;;;3.58;100.00
21203;BME280;10759;51.982;9.232;2023-02-10T09:42:27;102412.44;;;3.68;100.00
21203;BME280;10759;51.982;9.232;2023-02-10T09:45:03;102302.75;;;2.86;100.00
21203;BME280;10759;51.982;9.232;2023-02-10T09:47:38;102416.88;;;3.68;100.00
21203;BME280;10759;51.982;9.232;2023-02-10T09:50:26;102393.78;;;3.63;100.00
21203;BME280;10759;51.982;9.232;2023-02-10T09:53:09;102412.66;;;3.77;100.00
21203;BME280;10759;51.982;9.232;2023-02-10T09:55:41;102417.38;;;3.91;100.00
21203;BME280;10759;51.982;9.232;2023-02-10T09:58:18;102397.53;;;3.72;100.00
21203;BME280;10759;51.982;9.232;2023-02-10T10:00:53;102427.03;;;3.87;100.00
21203;BME280;10759;51.982;9.232;2023-02-10T10:03:26;102405.53;;;3.75;100.00
21203;BME280;10759;51.982;9.232;2023-02-10T10:06:04;102424.50;;;3.93;100.00
21203;BME280;10759;51.982;9.232;2023-02-10T10:08:43;102422.78;;;3.95;100.00
21203;BME280;10759;51.982;9.232;2023-02-10T10:11:23;102432.59;;;3.99;100.00
21203;BME280;10759;51.982;9.232;2023-02-10T10:13:53;102431.72;;;3.99;100.00
21203;BME280;10759;51.982;9.232;2023-02-10T10:16:46;102395.91;;;3.80;100.00
21203;BME280;10759;51.982;9.232;2023-02-10T10:19:28;102436.16;;;4.00;100.00
21203;BME280;10759;51.982;9.232;2023-02-10T10:22:08;102437.19;;;4.06;100.00
21203;BME280;10759;51.982;9.232;2023-02-10T10:24:48;102357.53;;;3.64;100.00
21203;BME280;10759;51.982;9.232;2023-02-10T10:27:26;102440.84;;;4.13;100.00
21203;BME280;10759;51.982;9.232;2023-02-10T10:30:02;102400.91;;;4.07;100.00
21203;BME280;10759;51.982;9.232;2023-02-10T10:32:39;102445.91;;;4.43;100.00
21203;BME280;10759;51.982;9.232;2023-02-10T10:35:14;102445.09;;;4.47;100.00
21203;BME280;10759;51.982;9.232;2023-02-10T10:37:44;102429.84;;;4.36;100.00
21203;BME280;10759;51.982;9.232;2023-02-10T10:40:16;102437.03;;;4.41;100.00
21203;BME280;10759;51.982;9.232;2023-02-10T10:42:49;102435.38;;;4.48;100.00
21203;BME280;10759;51.982;9.232;2023-02-10T10:45:22;102439.13;;;4.59;100.00
21203;BME280;10759;51.982;9.232;2023-02-10T10:47:56;102431.13;;;4.58;100.00
21203;BME280;10759;51.982;9.232;2023-02-10T10:50:26;102429.44;;;4.61;100.00
21203;BME280;10759;51.982;9.232;2023-02-10T10:52:55;102411.25;;;4.84;100.00
21203;BME280;10759;51.982;9.232;2023-02-10T10:55:28;102420.81;;;4.73;100.00
21203;BME280;10759;51.982;9.232;2023-02-10T10:58:00;102379.78;;;4.57;100.00
21203;BME280;10759;51.982;9.232;2023-02-10T11:00:29;102395.28;;;4.81;100.00
21203;BME280;10759;51.982;9.232;2023-02-10T11:03:00;102412.09;;;4.80;100.00
21203;BME280;10759;51.982;9.232;2023-02-10T11:05:30;102402.44;;;4.85;100.00
21203;BME280;10759;51.982;9.232;2023-02-10T11:08:00;102398.06;;;4.87;100.00
21203;BME280;10759;51.982;9.232;2023-02-10T11:10:32;102406.06;;;4.92;100.00
21203;BME280;10759;51.982;9.232;2023-02-10T11:13:00;102413.28;;;4.98;100.00
21203;BME280;10759;51.982;9.232;2023-02-10T11:15:37;102400.66;;;4.86;100.00
21203;BME280;10759;51.982;9.232;2023-02-10T11:18:15;102404.03;;;4.76;100.00
21203;BME280;10759;51.982;9.232;2023-02-10T11:20:53;102413.16;;;4.91;100.00
21203;BME280;10759;51.982;9.232;2023-02-10T11:23:22;102405.41;;;5.04;100.00
21203;BME280;10759;51.982;9.232;2023-02-10T11:25:59;102397.16;;;4.88;100.00
21203;BME280;10759;51.982;9.232;2023-02-10T11:28:29;102401.69;;;4.92;100.00
21203;BME280;10759;51.982;9.232;2023-02-10T11:31:00;102395.66;;;5.03;100.00
21203;BME280;10759;51.982;9.232;2023-02-10T11:33:31;102398.13;;;4.93;100.00
21203;BME280;10759;51.982;9.232;2023-02-10T11:36:03;102352.50;;;4.67;100.00
21203;BME280;10759;51.982;9.232;2023-02-10T11:38:34;102386.78;;;5.04;100.00
21203;BME280;10759;51.982;9.232;2023-02-10T11:41:04;102393.16;;;5.12;100.00
21203;BME280;10759;51.982;9.232;2023-02-10T11:43:37;102367.22;;;4.99;100.00
21203;BME280;10759;51.982;9.232;2023-02-10T11:46:17;102382.69;;;5.23;100.00
21203;BME280;10759;51.982;9.232;2023-02-10T11:48:54;102367.25;;;5.00;100.00
21203;BME280;10759;51.982;9.232;2023-02-10T11:51:23;102258.56;;;4.62;100.00
21203;BME280;10759;51.982;9.232;2023-02-10T11:53:51;102378.28;;;5.26;100.00
21203;BME280;10759;51.982;9.232;2023-02-10T11:56:22;102350.56;;;5.07;100.00
21203;BME280;10759;51.982;9.232;2023-02-10T11:59:22;102373.94;;;5.31;100.00
21203;BME280;10759;51.982;9.232;2023-02-10T12:01:52;102366.16;;;5.42;100.00
21203;BME280;10759;51.982;9.232;2023-02-10T12:07:27;102330.50;;;5.29;98.03
21203;BME280;10759;51.982;9.232;2023-02-10T12:10:02;102364.41;;;5.46;99.04
21203;BME280;10759;51.982;9.232;2023-02-10T12:12:37;102361.72;;;5.43;97.99
21203;BME280;10759;51.982;9.232;2023-02-10T12:15:16;102371.47;;;5.44;98.56
21203;BME280;10759;51.982;9.232;2023-02-10T12:18:00;102363.44;;;5.41;98.02
21203;BME280;10759;51.982;9.232;2023-02-10T12:20:41;102359.78;;;5.32;98.07
21203;BME280;10759;51.982;9.232;2023-02-10T12:26:24;102366.16;;;5.42;97.44
21203;BME280;10759;51.982;9.232;2023-02-10T12:29:02;102368.00;;;5.48;95.69
21203;BME280;10759;51.982;9.232;2023-02-10T12:31:43;102365.44;;;5.54;96.50
21203;BME280;10759;51.982;9.232;2023-02-10T12:34:27;102350.19;;;5.44;95.72
21203;BME280;10759;51.982;9.232;2023-02-10T12:37:07;102345.72;;;5.41;96.85
21203;BME280;10759;51.982;9.232;2023-02-10T12:39:46;102328.91;;;5.42;97.70
21203;BME280;10759;51.982;9.232;2023-02-10T12:42:37;102341.53;;;5.58;94.00
21203;BME280;10759;51.982;9.232;2023-02-10T12:45:17;102349.34;;;5.45;94.85
21203;BME280;10759;51.982;9.232;2023-02-10T12:47:56;102308.16;;;5.18;94.20
21203;BME280;10759;51.982;9.232;2023-02-10T12:50:39;102337.75;;;5.40;94.69
21203;BME280;10759;51.982;9.232;2023-02-10T12:53:16;102334.34;;;5.50;93.98
21203;BME280;10759;51.982;9.232;2023-02-10T12:55:51;102274.44;;;5.14;93.79
21203;BME280;10759;51.982;9.232;2023-02-10T12:58:26;102324.69;;;5.58;92.87
21203;BME280;10759;51.982;9.232;2023-02-10T13:01:03;102324.78;;;5.64;92.52
21203;BME280;10759;51.982;9.232;2023-02-10T13:03:37;102326.69;;;5.74;92.13
21203;BME280;10759;51.982;9.232;2023-02-10T13:06:17;102320.50;;;5.77;91.77
21203;BME280;10759;51.982;9.232;2023-02-10T13:08:48;102318.88;;;5.90;90.35
21203;BME280;10759;51.982;9.232;2023-02-10T13:11:23;102310.84;;;5.84;89.62
21203;BME280;10759;51.982;9.232;2023-02-10T13:13:57;102301.34;;;6.04;90.12
21203;BME280;10759;51.982;9.232;2023-02-10T13:16:31;102282.78;;;6.12;87.12
21203;BME280;10759;51.982;9.232;2023-02-10T13:19:06;101985.75;;;4.47;85.89
21203;BME280;10759;51.982;9.232;2023-02-10T13:21:43;102286.53;;;6.28;86.74